createdAt,value
2022-10-13T00:00:19.166Z,59
2022-10-13T00:05:19.168Z,59
2022-10-13T00:10:19.097Z,59
2022-10-13T00:15:19.208Z,60
2022-10-13T00:20:19.251Z,60
2022-10-13T00:25:19.129Z,60
2022-10-13T00:30:19.105Z,60
2022-10-13T00:35:19.166Z,61
2022-10-13T00:40:16.091Z,61
2022-10-13T00:45:16.141Z,62
2022-10-13T00:50:19.286Z,62
2022-10-13T00:55:19.285Z,63
2022-10-13T01:00:19.146Z,63
2022-10-13T01:05:19.184Z,64
2022-10-13T01:10:19.178Z,64
2022-10-13T01:15:19.235Z,64
2022-10-13T01:20:19.204Z,64
2022-10-13T01:25:19.203Z,65
2022-10-13T01:30:19.349Z,66
2022-10-13T01:35:16.216Z,66
2022-10-13T01:40:19.382Z,66
2022-10-13T01:45:19.259Z,67
2022-10-13T01:50:19.293Z,67
2022-10-13T01:55:19.236Z,68
2022-10-13T02:00:19.209Z,68
2022-10-13T02:05:19.225Z,69
2022-10-13T02:10:19.437Z,69
2022-10-13T02:15:19.319Z,70
2022-10-13T02:20:19.324Z,70
2022-10-13T02:25:16.275Z,70
2022-10-13T02:30:16.240Z,71
2022-10-13T02:35:19.452Z,72
2022-10-13T02:40:19.486Z,72
2022-10-13T02:45:19.315Z,72
2022-10-13T02:50:19.398Z,72
2022-10-13T02:55:19.371Z,72
2022-10-13T03:00:19.420Z,73
2022-10-13T03:05:19.368Z,72
2022-10-13T03:10:19.449Z,73
2022-10-13T03:15:19.358Z,73
2022-10-13T03:20:16.341Z,73
2022-10-13T03:25:16.399Z,73
2022-10-13T03:30:19.536Z,73
2022-10-13T03:35:19.492Z,74
2022-10-13T03:40:19.386Z,74
2022-10-13T03:45:19.463Z,75
2022-10-13T03:50:19.379Z,76
2022-10-13T03:55:19.449Z,76
2022-10-13T04:00:18.766Z,75
2022-10-13T04:05:18.799Z,75
2022-10-13T04:10:18.744Z,76
2022-10-13T04:15:19.082Z,76
2022-10-13T04:20:18.880Z,76
2022-10-13T04:25:18.779Z,76
2022-10-13T04:30:15.609Z,77
2022-10-13T04:35:15.812Z,77
2022-10-13T04:40:18.868Z,77
2022-10-13T04:45:18.862Z,77
2022-10-13T04:50:18.854Z,77
2022-10-13T04:55:18.844Z,77
2022-10-13T05:00:18.828Z,78
2022-10-13T05:05:18.736Z,78
2022-10-13T05:10:18.866Z,78
2022-10-13T05:15:18.875Z,79
2022-10-13T05:20:15.819Z,79
2022-10-13T05:25:15.876Z,80
2022-10-13T05:30:19.049Z,80
2022-10-13T05:35:18.920Z,81
2022-10-13T05:40:18.876Z,81
2022-10-13T05:45:18.942Z,81
2022-10-13T05:50:18.932Z,82
2022-10-13T05:55:18.960Z,82
2022-10-13T06:00:18.952Z,83
2022-10-13T06:05:19.018Z,84
2022-10-13T06:10:18.976Z,84
2022-10-13T06:15:15.791Z,85
2022-10-13T06:20:15.821Z,85
2022-10-13T06:25:18.942Z,86
2022-10-13T06:30:19.086Z,86
2022-10-13T06:35:18.956Z,87
2022-10-13T06:40:19.053Z,88
2022-10-13T06:45:18.932Z,88
2022-10-13T06:50:19.042Z,88
2022-10-13T06:55:19.000Z,88
2022-10-13T07:00:19.108Z,88
2022-10-13T07:05:15.919Z,88
2022-10-13T07:10:15.886Z,89
2022-10-13T07:15:19.141Z,89
2022-10-13T07:20:19.073Z,89
2022-10-13T07:25:18.998Z,89
2022-10-13T07:30:19.151Z,89
2022-10-13T07:35:18.956Z,89
2022-10-13T07:40:19.079Z,89
2022-10-13T07:45:19.175Z,89
2022-10-13T07:50:19.152Z,89
2022-10-13T07:55:19.117Z,90
2022-10-13T08:00:15.994Z,90
2022-10-13T08:05:15.977Z,90
2022-10-13T08:10:19.064Z,90
2022-10-13T08:15:19.173Z,90
2022-10-13T08:20:19.255Z,90
2022-10-13T08:25:19.097Z,89
2022-10-13T08:30:19.217Z,90
2022-10-13T08:35:19.114Z,90
2022-10-13T08:40:19.095Z,89
2022-10-13T08:45:40.275Z,90
2022-10-13T08:50:19.098Z,90
2022-10-13T08:55:16.067Z,90
2022-10-13T09:00:19.162Z,90
2022-10-13T09:05:19.375Z,90
2022-10-13T09:10:19.143Z,90
2022-10-13T09:15:19.054Z,90
2022-10-13T09:20:19.114Z,90
2022-10-13T09:25:19.125Z,90
2022-10-13T09:30:19.449Z,91
2022-10-13T09:35:19.184Z,91
2022-10-13T09:40:19.130Z,91
2022-10-13T09:45:16.147Z,91
2022-10-13T09:50:16.164Z,91
2022-10-13T09:55:19.366Z,91
2022-10-13T10:00:19.217Z,91
2022-10-13T10:05:19.238Z,91
2022-10-13T10:10:19.174Z,91
2022-10-13T10:15:19.280Z,91
2022-10-13T10:20:19.217Z,91
2022-10-13T10:25:19.203Z,92
2022-10-13T10:30:19.379Z,92
2022-10-13T10:35:19.318Z,92
2022-10-13T10:40:16.293Z,92
2022-10-13T10:45:16.171Z,92
2022-10-13T10:50:19.352Z,92
2022-10-13T10:55:19.354Z,92
2022-10-13T11:00:19.451Z,92
2022-10-13T11:05:19.331Z,92
2022-10-13T11:10:19.279Z,93
2022-10-13T11:15:19.412Z,92
2022-10-13T11:20:19.486Z,92
2022-10-13T11:25:19.431Z,92
2022-10-13T11:30:19.522Z,92
2022-10-13T11:35:16.326Z,92
2022-10-13T11:40:19.487Z,92
2022-10-13T11:45:19.358Z,92
2022-10-13T11:50:19.643Z,92
2022-10-13T11:55:19.364Z,92
2022-10-13T12:00:19.372Z,92
2022-10-13T12:05:19.437Z,92
2022-10-13T12:10:19.365Z,92
2022-10-13T12:15:19.585Z,92
2022-10-13T12:20:19.494Z,92
2022-10-13T12:25:16.400Z,93
2022-10-13T12:30:16.475Z,92
2022-10-13T12:35:19.458Z,92
2022-10-13T12:40:19.499Z,92
2022-10-13T12:45:19.373Z,93
2022-10-13T12:50:19.717Z,92
2022-10-13T12:55:19.447Z,90
2022-10-13T13:00:19.423Z,89
2022-10-13T13:05:19.451Z,89
2022-10-13T13:10:19.514Z,88
2022-10-13T13:15:19.451Z,88
2022-10-13T13:20:16.475Z,87
2022-10-13T13:25:16.494Z,87
2022-10-13T13:30:19.545Z,86
2022-10-13T13:35:19.578Z,86
2022-10-13T13:40:19.567Z,85
2022-10-13T13:45:19.601Z,84
2022-10-13T13:50:19.627Z,82
2022-10-13T13:55:19.783Z,81
2022-10-13T14:00:19.678Z,80
2022-10-13T14:05:19.561Z,79
2022-10-13T14:10:16.577Z,79
2022-10-13T14:15:16.913Z,78
2022-10-13T14:20:19.584Z,78
2022-10-13T14:25:19.708Z,77
2022-10-13T14:30:19.654Z,77
2022-10-13T14:35:19.656Z,78
2022-10-13T14:40:19.645Z,77
2022-10-13T14:45:19.738Z,77
2022-10-13T14:50:19.623Z,76
2022-10-13T14:55:19.656Z,76
2022-10-13T15:00:19.643Z,77
2022-10-13T15:05:16.640Z,76
2022-10-13T15:10:16.566Z,75
2022-10-13T15:15:19.739Z,75
2022-10-13T15:20:19.773Z,76
2022-10-13T15:25:19.800Z,76
2022-10-13T15:30:19.706Z,77
2022-10-13T15:35:19.837Z,76
2022-10-13T15:40:19.844Z,75
2022-10-13T15:45:19.907Z,75
2022-10-13T15:50:19.828Z,74
2022-10-13T15:55:19.757Z,72
2022-10-13T16:00:16.665Z,71
2022-10-13T16:05:19.797Z,69
2022-10-13T16:10:19.931Z,69
2022-10-13T16:15:19.736Z,70
2022-10-13T16:20:19.833Z,75
2022-10-13T16:25:19.796Z,79
2022-10-13T16:30:19.843Z,81
2022-10-13T16:35:19.779Z,82
2022-10-13T16:40:19.790Z,83
2022-10-13T16:45:35.444Z,84
2022-10-13T16:50:16.727Z,84
2022-10-13T16:55:16.843Z,85
2022-10-13T17:00:20.110Z,86
2022-10-13T17:05:19.880Z,86
2022-10-13T17:10:19.845Z,85
2022-10-13T17:15:19.867Z,84
2022-10-13T17:20:20.065Z,84
2022-10-13T17:25:19.914Z,83
2022-10-13T17:30:19.915Z,83
2022-10-13T17:35:20.019Z,82
2022-10-13T17:40:19.915Z,81
2022-10-13T17:45:16.782Z,79
2022-10-13T17:50:16.805Z,79
2022-10-13T17:55:20.060Z,79
2022-10-13T18:00:19.842Z,78
2022-10-13T18:05:19.961Z,78
2022-10-13T18:10:19.988Z,79
2022-10-13T18:15:19.956Z,79
2022-10-13T18:20:19.926Z,79
2022-10-13T18:25:19.946Z,79
2022-10-13T18:30:22.331Z,79
2022-10-13T18:35:16.939Z,79
2022-10-13T18:40:16.719Z,79
2022-10-13T18:45:20.260Z,79
2022-10-13T18:50:20.168Z,79
2022-10-13T18:55:19.983Z,79
2022-10-13T19:00:20.064Z,78
2022-10-13T19:05:19.975Z,78
2022-10-13T19:10:19.991Z,77
2022-10-13T19:15:20.197Z,77
2022-10-13T19:20:20.058Z,77
2022-10-13T19:25:20.061Z,77
2022-10-13T19:30:17.073Z,77
2022-10-13T19:35:17.043Z,77
2022-10-13T19:40:20.068Z,77
2022-10-13T19:45:20.215Z,77
2022-10-13T19:50:20.130Z,77
2022-10-13T19:55:20.140Z,77
2022-10-13T20:00:20.106Z,78
2022-10-13T20:05:24.706Z,78
2022-10-13T20:10:20.077Z,78
2022-10-13T20:15:20.043Z,79
2022-10-13T20:20:22.405Z,79
2022-10-13T20:25:17.019Z,80
2022-10-13T20:30:20.039Z,80
2022-10-13T20:35:20.182Z,80
2022-10-13T20:40:20.215Z,81
2022-10-13T20:45:20.209Z,81
2022-10-13T20:50:17.189Z,82
2022-10-13T20:55:20.207Z,84
2022-10-13T21:00:20.195Z,85
2022-10-13T21:05:20.212Z,86
2022-10-13T21:10:20.151Z,87
2022-10-13T21:15:17.109Z,88
2022-10-13T21:20:17.052Z,89
2022-10-13T21:25:20.420Z,89
2022-10-13T21:30:20.068Z,90
2022-10-13T21:35:20.237Z,91
2022-10-13T21:40:20.193Z,91
2022-10-13T21:45:20.403Z,91
2022-10-13T21:50:20.246Z,92
2022-10-13T21:55:20.340Z,92
2022-10-13T22:00:20.337Z,92
2022-10-13T22:05:20.256Z,92
2022-10-13T22:10:17.116Z,92
2022-10-13T22:15:17.195Z,93
2022-10-13T22:20:20.308Z,93
2022-10-13T22:25:20.254Z,93
2022-10-13T22:30:20.198Z,93
2022-10-13T22:35:20.269Z,93
2022-10-13T22:40:20.333Z,93
2022-10-13T22:45:20.309Z,93
2022-10-13T22:50:20.298Z,93
2022-10-13T22:55:20.420Z,93
2022-10-13T23:00:20.405Z,93
2022-10-13T23:05:17.756Z,93
2022-10-13T23:10:17.339Z,94
2022-10-13T23:15:20.383Z,94
2022-10-13T23:20:20.457Z,94
2022-10-13T23:25:20.379Z,94
2022-10-13T23:30:20.308Z,94
2022-10-13T23:35:20.327Z,94
2022-10-13T23:40:20.373Z,94
2022-10-13T23:45:20.445Z,94
2022-10-13T23:50:20.384Z,94
2022-10-13T23:55:17.224Z,94
